createdAt,value
2017-12-30T15:00:36.316Z,99.90
2017-12-30T15:03:08.785Z,99.90
2017-12-30T15:05:39.213Z,99.90
2017-12-30T15:08:11.702Z,99.90
2017-12-30T15:10:41.171Z,99.90
2017-12-30T15:13:10.351Z,99.90
2017-12-30T15:21:25.417Z,99.90
2017-12-30T15:23:54.092Z,99.90
2017-12-30T15:26:22.764Z,99.90
2017-12-30T15:28:52.369Z,99.90
2017-12-30T15:31:21.056Z,99.90
2017-12-30T15:33:49.714Z,99.90
2017-12-30T15:36:19.136Z,99.90
2017-12-30T15:38:48.371Z,99.90
2017-12-30T15:41:17.016Z,99.90
2017-12-30T15:43:45.691Z,99.90
2017-12-30T15:46:15.110Z,99.90
2017-12-30T15:48:43.837Z,99.90
2017-12-30T15:51:30.114Z,99.90
2017-12-30T15:54:09.226Z,99.90
2017-12-30T15:56:38.727Z,99.90
2017-12-30T15:59:29.606Z,99.90
2017-12-30T16:02:02.529Z,99.90
2017-12-30T16:07:06.354Z,99.90
2017-12-30T16:09:35.837Z,99.90
2017-12-30T16:12:05.267Z,99.90
2017-12-30T16:14:33.925Z,99.90
2017-12-30T16:17:03.365Z,99.90
2017-12-30T16:19:32.856Z,99.90
2017-12-30T16:22:01.534Z,99.90
2017-12-30T16:24:30.953Z,99.90
2017-12-30T16:26:59.610Z,99.90
2017-12-30T16:29:29.049Z,99.90
2017-12-30T16:31:57.718Z,99.90
2017-12-30T16:34:27.172Z,99.90
2017-12-30T16:36:55.833Z,99.90
2017-12-30T16:39:24.522Z,99.90
2017-12-30T16:41:53.176Z,99.90
2017-12-30T16:44:22.601Z,99.90
2017-12-30T16:46:51.363Z,99.90
2017-12-30T16:49:26.116Z,99.90
2017-12-30T16:51:54.804Z,99.90
2017-12-30T16:54:29.521Z,99.90
2017-12-30T16:56:58.965Z,99.90
2017-12-30T16:59:27.857Z,99.90
2017-12-30T17:01:56.546Z,99.90
2017-12-30T17:04:25.192Z,99.90
2017-12-30T17:06:53.846Z,99.90
2017-12-30T17:09:25.228Z,99.90
2017-12-30T17:11:55.824Z,99.90
2017-12-30T17:14:24.718Z,99.90
2017-12-30T17:16:53.045Z,99.90
2017-12-30T17:19:22.234Z,99.90
2017-12-30T17:21:50.890Z,99.90
2017-12-30T17:24:19.965Z,99.90
2017-12-30T17:26:48.646Z,99.90
2017-12-30T17:29:16.987Z,99.90
2017-12-30T17:31:45.660Z,99.90
2017-12-30T17:34:15.081Z,99.90
2017-12-30T17:36:43.785Z,99.90
2017-12-30T17:39:12.455Z,99.90
2017-12-30T17:41:41.160Z,99.90
2017-12-30T17:44:10.828Z,99.90
2017-12-30T17:46:39.474Z,99.90
2017-12-30T17:49:08.142Z,99.90
2017-12-30T17:51:37.680Z,99.90
2017-12-30T17:54:06.346Z,99.90
2017-12-30T17:56:35.792Z,99.90
2017-12-30T17:59:05.229Z,99.90
2017-12-30T18:01:33.878Z,99.90
2017-12-30T18:04:04.862Z,99.90
2017-12-30T18:06:33.225Z,99.90
2017-12-30T18:09:02.642Z,99.90
2017-12-30T18:11:31.373Z,99.90
2017-12-30T18:14:00.038Z,99.90
2017-12-30T18:16:28.728Z,99.90
2017-12-30T18:18:57.719Z,99.90
2017-12-30T18:21:26.399Z,99.90
2017-12-30T18:23:55.095Z,99.90
2017-12-30T18:26:23.597Z,99.90
2017-12-30T18:28:52.254Z,99.90
2017-12-30T18:31:20.936Z,99.90
2017-12-30T18:33:49.847Z,99.90
2017-12-30T18:36:18.520Z,99.90
2017-12-30T18:38:47.225Z,99.90
2017-12-30T18:41:17.010Z,99.90
2017-12-30T18:43:46.277Z,99.90
2017-12-30T18:46:21.401Z,99.90
2017-12-30T18:48:50.705Z,99.90
2017-12-30T18:51:20.025Z,99.90
2017-12-30T18:53:48.719Z,99.90
2017-12-30T18:56:17.383Z,99.90
2017-12-30T18:58:47.658Z,99.90
2017-12-30T19:01:16.936Z,99.90
2017-12-30T19:03:46.514Z,99.90
2017-12-30T19:06:16.090Z,99.90
2017-12-30T19:08:44.833Z,99.90
2017-12-30T19:11:13.523Z,99.90
2017-12-30T19:13:42.005Z,99.90
2017-12-30T19:16:10.698Z,99.90
2017-12-30T19:18:40.724Z,99.90
2017-12-30T19:23:45.691Z,99.90
2017-12-30T19:26:14.480Z,99.90
2017-12-30T19:28:43.987Z,99.90
2017-12-30T19:31:12.945Z,99.90
2017-12-30T19:33:42.033Z,99.90
2017-12-30T19:36:11.473Z,99.90
2017-12-30T19:38:40.205Z,99.90
2017-12-30T19:41:09.648Z,99.90
2017-12-30T19:43:38.403Z,99.90
2017-12-30T19:46:09.608Z,99.90
2017-12-30T19:48:38.302Z,99.90
2017-12-30T19:51:06.988Z,99.90
2017-12-30T19:53:36.003Z,99.90
2017-12-30T19:56:05.788Z,99.90
2017-12-30T19:58:34.957Z,99.90
2017-12-30T20:01:04.340Z,99.90
2017-12-30T20:03:33.808Z,99.90
2017-12-30T20:06:02.488Z,99.90
2017-12-30T20:08:31.153Z,99.90
2017-12-30T20:10:59.840Z,99.90
2017-12-30T20:13:28.700Z,99.90
2017-12-30T20:15:58.334Z,99.90
2017-12-30T20:18:27.005Z,99.90
2017-12-30T20:20:55.679Z,99.90
2017-12-30T20:23:25.191Z,99.90
2017-12-30T20:25:54.617Z,99.90
2017-12-30T20:28:23.297Z,99.90
2017-12-30T20:30:51.964Z,99.90
2017-12-30T20:33:21.426Z,99.90
2017-12-30T20:35:50.101Z,99.90
2017-12-30T20:38:18.794Z,99.90
2017-12-30T20:40:48.267Z,99.90
2017-12-30T20:43:16.940Z,99.90
2017-12-30T20:45:46.393Z,99.30
2017-12-30T20:48:15.139Z,99.80
2017-12-30T20:50:43.833Z,99.90
2017-12-30T20:53:12.500Z,99.80
2017-12-30T20:55:41.965Z,99.10
2017-12-30T20:58:10.644Z,99.00
2017-12-30T21:00:39.350Z,98.50
2017-12-30T21:03:08.200Z,98.10
2017-12-30T21:05:36.874Z,97.90
2017-12-30T21:08:05.572Z,97.90
2017-12-30T21:10:34.931Z,97.80
2017-12-30T21:13:03.654Z,97.60
2017-12-30T21:15:32.330Z,97.50
2017-12-30T21:18:01.769Z,97.00
2017-12-30T21:20:30.460Z,97.10
2017-12-30T21:22:59.144Z,96.60
2017-12-30T21:25:27.834Z,96.30
2017-12-30T21:27:56.529Z,96.00
2017-12-30T21:30:25.222Z,95.90
2017-12-30T21:32:53.885Z,95.70
2017-12-30T21:35:22.929Z,95.60
2017-12-30T21:37:52.380Z,95.10
2017-12-30T21:40:20.882Z,95.10
2017-12-30T21:42:49.548Z,94.80
2017-12-30T21:45:18.339Z,94.90
2017-12-30T21:47:47.020Z,94.80
2017-12-30T21:50:15.371Z,94.60
2017-12-30T21:52:44.854Z,94.30
2017-12-30T21:55:13.546Z,94.20
2017-12-30T21:57:42.241Z,94.20
2017-12-30T22:00:10.912Z,94.20
2017-12-30T22:02:39.390Z,94.20
2017-12-30T22:05:08.134Z,94.20
2017-12-30T22:07:36.492Z,94.20
2017-12-30T22:10:06.006Z,94.10
2017-12-30T22:12:34.675Z,94.00
2017-12-30T22:15:04.152Z,93.90
2017-12-30T22:17:32.817Z,93.90
2017-12-30T22:20:01.492Z,93.90
2017-12-30T22:22:30.173Z,93.80
2017-12-30T22:24:58.841Z,93.50
2017-12-30T22:27:28.289Z,93.60
2017-12-30T22:29:56.971Z,93.60
2017-12-30T22:32:25.681Z,93.80
2017-12-30T22:34:54.353Z,93.70
2017-12-30T22:37:23.044Z,93.20
2017-12-30T22:39:51.726Z,93.30
2017-12-30T22:42:20.421Z,93.20
2017-12-30T22:44:49.097Z,93.20
2017-12-30T22:47:17.800Z,92.80
2017-12-30T22:49:46.609Z,92.40
2017-12-30T22:52:15.287Z,92.40
2017-12-30T22:54:43.980Z,92.40
2017-12-30T22:57:12.654Z,92.00
2017-12-30T22:59:41.336Z,92.20
2017-12-30T23:02:10.048Z,92.40
2017-12-30T23:04:39.350Z,92.30
2017-12-30T23:07:08.810Z,94.20
2017-12-30T23:09:37.184Z,94.20
2017-12-30T23:12:05.848Z,93.00
2017-12-30T23:14:34.537Z,91.70
2017-12-30T23:17:03.217Z,91.30
2017-12-30T23:19:31.891Z,91.30
2017-12-30T23:22:01.333Z,91.10
2017-12-30T23:24:30.006Z,91.00
2017-12-30T23:26:58.889Z,90.80
2017-12-30T23:29:28.322Z,90.00
2017-12-30T23:31:57.418Z,90.00
2017-12-30T23:34:26.865Z,89.10
2017-12-30T23:36:55.542Z,88.20
2017-12-30T23:39:24.223Z,88.30
2017-12-30T23:41:53.947Z,87.50
2017-12-30T23:44:22.628Z,87.30
2017-12-30T23:46:51.313Z,86.90
2017-12-30T23:49:20.015Z,86.60
2017-12-30T23:51:48.677Z,86.40
2017-12-30T23:54:17.349Z,86.10
2017-12-30T23:56:46.058Z,86.10
2017-12-30T23:59:14.734Z,85.70
